Time;durP1;ratioP1;P1;durP2;ratioP2;P2;SDS_P1;SDS_P2;PMS_P1;PMS_P2;Temp;Humidity;BMP_temperature;BMP_pressure;BME280_temperature;BME280_humidity;BME280_pressure;Samples;Min_cycle;Max_cycle;Signal;HPM_P1;HPM_P2
2022/02/19 00:00:35;;;;;;;8.00;2.28;;;;;;;;;;5054841;28;20024;-64
2022/02/19 00:03:03;;;;;;;11.02;2.75;;;;;;;;;;5055049;28;20075;-64
2022/02/19 00:05:29;;;;;;;9.73;2.65;;;;;;;;;;5054215;28;20074;-65
2022/02/19 00:07:56;;;;;;;12.07;2.75;;;;;;;;;;5074751;28;20036;-65
2022/02/19 00:10:22;;;;;;;9.18;2.50;;;;;;;;;;5075018;28;20020;-64
2022/02/19 00:12:49;;;;;;;11.43;2.70;;;;;;;;;;5074333;28;20033;-64
2022/02/19 00:15:15;;;;;;;7.90;2.45;;;;;;;;;;5074715;28;20020;-64
2022/02/19 00:17:41;;;;;;;12.15;2.78;;;;;;;;;;5074099;28;20040;-64
2022/02/19 00:20:07;;;;;;;10.77;2.40;;;;;;;;;;5074705;28;20035;-66
2022/02/19 00:22:35;;;;;;;9.35;2.53;;;;;;;;;;5074374;28;20024;-64
2022/02/19 00:25:02;;;;;;;8.05;2.50;;;;;;;;;;5054926;28;20109;-66
2022/02/19 00:27:28;;;;;;;8.73;2.17;;;;;;;;;;5074397;28;20534;-66
2022/02/19 00:29:54;;;;;;;8.80;2.30;;;;;;;;;;5074354;28;20134;-65
2022/02/19 00:32:20;;;;;;;9.77;2.40;;;;;;;;;;5074248;28;20035;-65
2022/02/19 00:34:46;;;;;;;12.95;2.13;;;;;;;;;;5074360;28;20514;-65
2022/02/19 00:37:12;;;;;;;11.55;2.25;;;;;;;;;;5073766;28;20057;-66
2022/02/19 00:39:38;;;;;;;10.57;2.38;;;;;;;;;;5054973;28;20043;-65
2022/02/19 00:42:05;;;;;;;13.07;2.25;;;;;;;;;;5074069;28;20033;-64
2022/02/19 00:44:32;;;;;;;11.60;2.40;;;;;;;;;;5073892;28;20029;-65
2022/02/19 00:46:58;;;;;;;7.47;2.17;;;;;;;;;;5074087;28;20051;-66
2022/02/19 00:49:24;;;;;;;8.85;2.13;;;;;;;;;;5074212;28;20043;-64
2022/02/19 00:51:50;;;;;;;7.00;2.22;;;;;;;;;;5055720;28;20028;-64
2022/02/19 00:54:16;;;;;;;10.30;2.53;;;;;;;;;;5073764;28;20048;-64
2022/02/19 00:56:42;;;;;;;15.18;2.22;;;;;;;;;;5068302;28;20079;-64
2022/02/19 00:59:09;;;;;;;7.97;2.10;;;;;;;;;;5073476;28;20036;-64
2022/02/19 01:01:36;;;;;;;9.75;2.00;;;;;;;;;;5073738;28;20099;-66
2022/02/19 01:04:03;;;;;;;6.68;2.05;;;;;;;;;;5073728;28;20107;-66
2022/02/19 01:06:29;;;;;;;11.30;2.08;;;;;;;;;;5073896;28;20591;-65
2022/02/19 01:08:55;;;;;;;10.43;2.33;;;;;;;;;;5073575;28;20108;-65
2022/02/19 01:11:21;;;;;;;8.40;1.85;;;;;;;;;;5073564;28;20029;-65
2022/02/19 01:13:48;;;;;;;7.63;2.20;;;;;;;;;;5073482;28;20522;-66
2022/02/19 01:16:14;;;;;;;11.20;2.47;;;;;;;;;;5067266;28;20043;-65
2022/02/19 01:18:40;;;;;;;13.50;2.22;;;;;;;;;;5055199;28;20120;-67
2022/02/19 01:21:06;;;;;;;11.95;2.30;;;;;;;;;;5073461;28;20108;-63
2022/02/19 01:23:32;;;;;;;11.60;2.30;;;;;;;;;;5072860;28;20060;-64
2022/02/19 01:25:58;;;;;;;9.57;2.30;;;;;;;;;;5073118;28;20052;-64
2022/02/19 01:28:24;;;;;;;9.63;2.22;;;;;;;;;;5073078;28;20024;-66
2022/02/19 01:30:50;;;;;;;8.57;1.85;;;;;;;;;;5069916;28;20035;-66
2022/02/19 01:33:16;;;;;;;6.15;2.10;;;;;;;;;;5073325;28;20492;-65
2022/02/19 01:35:42;;;;;;;11.90;2.38;;;;;;;;;;5072992;28;20115;-67
2022/02/19 01:38:08;;;;;;;6.28;1.85;;;;;;;;;;5070636;28;20055;-64
2022/02/19 01:40:34;;;;;;;10.43;2.50;;;;;;;;;;5072665;28;20071;-64
2022/02/19 01:43:00;;;;;;;8.80;2.55;;;;;;;;;;5062789;28;20413;-64
2022/02/19 01:45:26;;;;;;;9.32;2.20;;;;;;;;;;5052811;28;20027;-63
2022/02/19 01:47:53;;;;;;;6.90;2.20;;;;;;;;;;5053000;28;20025;-63
2022/02/19 01:50:19;;;;;;;11.25;2.35;;;;;;;;;;5034929;28;20031;-64
2022/02/19 01:52:45;;;;;;;10.63;2.10;;;;;;;;;;5052534;28;20036;-64
2022/02/19 01:55:12;;;;;;;8.68;2.20;;;;;;;;;;5052787;28;20029;-65
2022/02/19 01:57:38;;;;;;;8.10;2.08;;;;;;;;;;5052616;28;20086;-64
2022/02/19 02:00:06;;;;;;;6.72;1.88;;;;;;;;;;5051015;28;20484;-64
2022/02/19 02:02:32;;;;;;;7.13;1.83;;;;;;;;;;5072438;28;20032;-65
2022/02/19 02:04:58;;;;;;;8.20;1.77;;;;;;;;;;5072617;28;20028;-66
2022/02/19 02:07:24;;;;;;;6.72;1.77;;;;;;;;;;5072652;28;20507;-65
2022/02/19 02:09:51;;;;;;;7.15;2.05;;;;;;;;;;5072407;28;20029;-65
2022/02/19 02:12:17;;;;;;;8.95;2.53;;;;;;;;;;5054732;28;20483;-66
2022/02/19 02:14:43;;;;;;;6.45;1.60;;;;;;;;;;5065964;28;20033;-66
2022/02/19 02:17:10;;;;;;;5.15;1.95;;;;;;;;;;5054663;28;20092;-64
2022/02/19 02:19:37;;;;;;;9.93;1.85;;;;;;;;;;5072713;28;20036;-66
2022/02/19 02:22:04;;;;;;;6.43;1.63;;;;;;;;;;5054146;28;20028;-63
2022/02/19 02:24:32;;;;;;;6.80;1.60;;;;;;;;;;5071919;28;20024;-67
2022/02/19 02:26:59;;;;;;;8.63;1.95;;;;;;;;;;5032470;28;20201;-65
2022/02/19 02:29:25;;;;;;;4.75;1.73;;;;;;;;;;5032398;28;20040;-66
2022/02/19 02:31:51;;;;;;;8.40;2.20;;;;;;;;;;5060590;28;20032;-65
2022/02/19 02:34:19;;;;;;;8.30;2.00;;;;;;;;;;5072423;28;20028;-66
2022/02/19 02:36:45;;;;;;;13.88;2.30;;;;;;;;;;5072209;28;20095;-65
2022/02/19 02:39:11;;;;;;;10.80;2.33;;;;;;;;;;5071873;28;20117;-64
2022/02/19 02:41:37;;;;;;;8.30;1.95;;;;;;;;;;5054048;28;20422;-65
2022/02/19 02:44:03;;;;;;;6.93;1.83;;;;;;;;;;5053475;28;20159;-64
2022/02/19 02:46:29;;;;;;;8.45;2.13;;;;;;;;;;5051232;28;20009;-64
2022/02/19 02:48:55;;;;;;;7.32;1.92;;;;;;;;;;5071897;28;20031;-66
2022/02/19 02:51:22;;;;;;;9.63;2.20;;;;;;;;;;5071787;28;20055;-64
2022/02/19 02:53:48;;;;;;;12.15;2.20;;;;;;;;;;5072193;28;20024;-64
2022/02/19 02:56:14;;;;;;;8.93;2.17;;;;;;;;;;5072224;28;20036;-66
2022/02/19 02:58:40;;;;;;;9.18;2.72;;;;;;;;;;5071719;28;20110;-65
2022/02/19 03:01:06;;;;;;;9.90;2.08;;;;;;;;;;5071798;28;20028;-66
2022/02/19 03:03:32;;;;;;;8.85;2.40;;;;;;;;;;5071348;28;20020;-66
2022/02/19 03:05:58;;;;;;;8.85;2.40;;;;;;;;;;5073118;28;20078;-66
2022/02/19 03:08:24;;;;;;;9.93;2.20;;;;;;;;;;5072865;28;20450;-67
2022/02/19 03:10:50;;;;;;;6.93;2.05;;;;;;;;;;5072662;28;20025;-66
2022/02/19 03:13:16;;;;;;;9.48;2.55;;;;;;;;;;5072337;28;20029;-64
2022/02/19 03:15:42;;;;;;;7.38;2.33;;;;;;;;;;5072211;28;20411;-64
2022/02/19 03:18:09;;;;;;;11.02;2.42;;;;;;;;;;5072462;28;20017;-67
2022/02/19 03:20:39;;;;;;;14.18;2.60;;;;;;;;;;5066760;28;20119;-66
2022/02/19 03:23:05;;;;;;;12.52;2.55;;;;;;;;;;5072067;28;20024;-66
2022/02/19 03:25:31;;;;;;;7.13;2.10;;;;;;;;;;5072066;28;20028;-64
2022/02/19 03:27:57;;;;;;;8.77;2.15;;;;;;;;;;5072487;28;20055;-65
2022/02/19 03:30:23;;;;;;;6.93;2.05;;;;;;;;;;5072068;28;20020;-66
2022/02/19 03:32:49;;;;;;;10.85;2.83;;;;;;;;;;5072099;28;20044;-65
2022/02/19 03:35:15;;;;;;;9.05;2.67;;;;;;;;;;5067613;28;20420;-65
2022/02/19 03:37:41;;;;;;;9.70;2.50;;;;;;;;;;5070092;28;20446;-66
2022/02/19 03:40:09;;;;;;;7.15;2.22;;;;;;;;;;5054379;28;20033;-65
2022/02/19 03:42:36;;;;;;;7.63;2.15;;;;;;;;;;5047736;28;20039;-63
2022/02/19 03:45:02;;;;;;;7.38;1.98;;;;;;;;;;5051861;28;20116;-66
2022/02/19 03:47:28;;;;;;;7.35;2.50;;;;;;;;;;5052090;28;20358;-65
2022/02/19 03:49:54;;;;;;;7.78;2.40;;;;;;;;;;5052420;28;20032;-66
2022/02/19 03:52:20;;;;;;;8.38;2.20;;;;;;;;;;5034118;28;20021;-67
2022/02/19 03:54:46;;;;;;;10.93;2.15;;;;;;;;;;5052452;28;20469;-63
2022/02/19 03:57:12;;;;;;;8.50;2.08;;;;;;;;;;5052147;28;20022;-66
2022/02/19 03:59:38;;;;;;;7.35;2.10;;;;;;;;;;5051907;28;20435;-65
2022/02/19 04:02:04;;;;;;;7.97;2.08;;;;;;;;;;5034504;28;20025;-65
2022/02/19 04:04:30;;;;;;;7.57;2.00;;;;;;;;;;5052725;28;20029;-65
2022/02/19 04:06:56;;;;;;;5.65;2.25;;;;;;;;;;5052188;28;20074;-66
2022/02/19 04:09:22;;;;;;;12.88;2.45;;;;;;;;;;5059155;28;20033;-65
2022/02/19 04:11:48;;;;;;;7.93;2.08;;;;;;;;;;5071607;28;20380;-65
2022/02/19 04:14:14;;;;;;;14.35;2.53;;;;;;;;;;5072892;28;20225;-66
2022/02/19 04:16:40;;;;;;;7.45;2.03;;;;;;;;;;5074535;28;20024;-65
2022/02/19 04:19:06;;;;;;;9.43;2.13;;;;;;;;;;5076544;28;20545;-67
2022/02/19 04:21:32;;;;;;;11.55;2.25;;;;;;;;;;5076131;28;20060;-66
2022/02/19 04:23:58;;;;;;;9.55;2.65;;;;;;;;;;5070613;28;20074;-65
2022/02/19 04:26:23;;;;;;;8.77;2.03;;;;;;;;;;5046216;28;20032;-67
2022/02/19 04:28:50;;;;;;;12.55;2.42;;;;;;;;;;5028791;28;20025;-65
2022/02/19 04:31:16;;;;;;;5.90;1.65;;;;;;;;;;5044957;28;20025;-66
2022/02/19 04:33:43;;;;;;;9.43;2.08;;;;;;;;;;5028490;28;20028;-66
2022/02/19 04:36:09;;;;;;;17.40;2.15;;;;;;;;;;5045307;28;20025;-65
2022/02/19 04:38:35;;;;;;;9.60;2.00;;;;;;;;;;5052864;28;20045;-64
2022/02/19 04:41:01;;;;;;;9.05;2.25;;;;;;;;;;5054875;28;20380;-66
2022/02/19 04:43:27;;;;;;;11.23;2.08;;;;;;;;;;5038645;28;20464;-66
2022/02/19 04:45:53;;;;;;;7.03;2.30;;;;;;;;;;5038138;28;20108;-67
2022/02/19 04:48:19;;;;;;;9.30;2.22;;;;;;;;;;5042581;28;20017;-67
2022/02/19 04:50:45;;;;;;;9.77;2.35;;;;;;;;;;5039940;28;20037;-67
2022/02/19 04:53:11;;;;;;;10.63;2.30;;;;;;;;;;5040301;28;20083;-66
2022/02/19 04:55:37;;;;;;;8.55;1.73;;;;;;;;;;5024895;28;20060;-67
2022/02/19 04:58:04;;;;;;;10.85;2.00;;;;;;;;;;5044170;28;20404;-66
2022/02/19 05:00:29;;;;;;;10.15;2.30;;;;;;;;;;5044560;28;20425;-66
2022/02/19 05:02:55;;;;;;;7.78;2.10;;;;;;;;;;5043185;28;20014;-65
2022/02/19 05:05:22;;;;;;;6.38;1.77;;;;;;;;;;5054569;28;20079;-67
2022/02/19 05:07:48;;;;;;;6.32;1.90;;;;;;;;;;5054219;28;20143;-64
2022/02/19 05:10:14;;;;;;;8.13;1.88;;;;;;;;;;5054323;28;20556;-68
2022/02/19 05:12:43;;;;;;;8.93;2.30;;;;;;;;;;5054862;28;20025;-67
2022/02/19 05:15:12;;;;;;;9.98;2.30;;;;;;;;;;5073651;28;20107;-66
2022/02/19 05:17:45;;;;;;;6.35;2.00;;;;;;;;;;5073636;28;20507;-66
2022/02/19 05:20:11;;;;;;;6.00;2.05;;;;;;;;;;5073820;28;20380;-65
2022/02/19 05:22:37;;;;;;;9.23;2.47;;;;;;;;;;5073653;28;20024;-67
2022/02/19 05:25:03;;;;;;;8.35;2.15;;;;;;;;;;5068440;28;20086;-67
2022/02/19 05:27:29;;;;;;;10.48;2.35;;;;;;;;;;5035761;28;20025;-64
2022/02/19 05:29:55;;;;;;;8.25;2.10;;;;;;;;;;5053706;28;20058;-68
2022/02/19 05:32:21;;;;;;;8.40;1.95;;;;;;;;;;5053642;28;20106;-67
2022/02/19 05:34:50;;;;;;;7.05;2.03;;;;;;;;;;5053620;28;20025;-65
2022/02/19 05:37:16;;;;;;;7.95;2.20;;;;;;;;;;5053605;28;20029;-67
2022/02/19 05:39:42;;;;;;;6.93;1.95;;;;;;;;;;5053517;28;20635;-67
2022/02/19 05:42:08;;;;;;;6.13;1.70;;;;;;;;;;5055343;28;20413;-67
2022/02/19 05:44:34;;;;;;;4.80;1.70;;;;;;;;;;5070855;28;20060;-66
2022/02/19 05:47:00;;;;;;;8.73;2.13;;;;;;;;;;5073458;28;20488;-67
2022/02/19 05:49:26;;;;;;;7.70;2.03;;;;;;;;;;5055385;28;20039;-67
2022/02/19 05:51:52;;;;;;;8.55;2.30;;;;;;;;;;5073240;28;20056;-67
2022/02/19 05:54:18;;;;;;;7.43;2.22;;;;;;;;;;5073265;28;20102;-68
2022/02/19 05:56:45;;;;;;;7.70;2.10;;;;;;;;;;5073241;28;20056;-68
2022/02/19 05:59:11;;;;;;;9.85;2.42;;;;;;;;;;5073254;28;20028;-64
2022/02/19 06:01:36;;;;;;;12.10;2.05;;;;;;;;;;5072894;28;20459;-64
2022/02/19 06:04:03;;;;;;;10.18;2.08;;;;;;;;;;5073553;28;20109;-65
2022/02/19 06:06:29;;;;;;;12.90;2.67;;;;;;;;;;5073189;28;20028;-65
2022/02/19 06:08:55;;;;;;;11.63;2.03;;;;;;;;;;5055186;28;20029;-65
2022/02/19 06:11:21;;;;;;;12.55;2.30;;;;;;;;;;5072863;28;20483;-66
2022/02/19 06:13:47;;;;;;;9.82;2.33;;;;;;;;;;5068985;28;20021;-66
2022/02/19 06:16:13;;;;;;;7.43;1.75;;;;;;;;;;5072449;28;20066;-65
2022/02/19 06:18:39;;;;;;;7.90;2.00;;;;;;;;;;5072557;28;20020;-65
2022/02/19 06:21:05;;;;;;;9.35;2.20;;;;;;;;;;5072642;28;20381;-65
2022/02/19 06:23:31;;;;;;;10.50;2.15;;;;;;;;;;5072444;28;20051;-66
2022/02/19 06:25:57;;;;;;;8.45;2.10;;;;;;;;;;5047627;28;20025;-65
2022/02/19 06:28:23;;;;;;;8.82;2.00;;;;;;;;;;5047269;28;20040;-67
2022/02/19 06:30:49;;;;;;;9.40;1.90;;;;;;;;;;5053114;28;20020;-67
2022/02/19 06:33:15;;;;;;;11.63;2.25;;;;;;;;;;5057900;28;20040;-67
2022/02/19 06:35:41;;;;;;;6.15;1.70;;;;;;;;;;5041061;28;20100;-64
2022/02/19 06:38:07;;;;;;;9.82;1.98;;;;;;;;;;5020152;28;20053;-64
2022/02/19 06:40:33;;;;;;;10.63;1.70;;;;;;;;;;5043862;28;20075;-66
2022/02/19 06:42:59;;;;;;;5.82;1.83;;;;;;;;;;5039552;28;20018;-66
2022/02/19 06:45:25;;;;;;;5.63;1.50;;;;;;;;;;5042472;28;20037;-67
2022/02/19 06:47:51;;;;;;;14.40;2.38;;;;;;;;;;5055666;28;20018;-65
2022/02/19 06:50:17;;;;;;;8.35;1.88;;;;;;;;;;5028894;28;20021;-65
2022/02/19 06:52:43;;;;;;;6.97;1.98;;;;;;;;;;5041352;28;20022;-67
2022/02/19 06:55:15;;;;;;;9.65;2.08;;;;;;;;;;5025830;28;20083;-67
2022/02/19 06:57:41;;;;;;;9.43;2.08;;;;;;;;;;5024257;28;20113;-64
2022/02/19 07:00:08;;;;;;;12.85;1.60;;;;;;;;;;5029358;28;20084;-65
2022/02/19 07:02:34;;;;;;;8.18;1.65;;;;;;;;;;5042722;28;20372;-63
2022/02/19 07:05:00;;;;;;;11.35;2.08;;;;;;;;;;5039781;28;20018;-66
2022/02/19 07:07:27;;;;;;;14.10;1.88;;;;;;;;;;5040807;28;20022;-66
2022/02/19 07:09:53;;;;;;;6.22;1.67;;;;;;;;;;5041403;28;20017;-66
2022/02/19 07:12:19;;;;;;;8.20;2.15;;;;;;;;;;5042669;28;20653;-65
2022/02/19 07:14:45;;;;;;;11.43;1.88;;;;;;;;;;5042565;28;20091;-67
2022/02/19 07:17:11;;;;;;;11.30;2.13;;;;;;;;;;5046898;28;20025;-66
2022/02/19 07:19:38;;;;;;;9.18;1.95;;;;;;;;;;5042717;28;20074;-64
2022/02/19 07:22:04;;;;;;;9.98;1.98;;;;;;;;;;5030406;28;20469;-64
2022/02/19 07:24:30;;;;;;;11.07;2.20;;;;;;;;;;5047995;28;20440;-65
2022/02/19 07:26:56;;;;;;;8.98;2.03;;;;;;;;;;5045335;28;20083;-67
2022/02/19 07:29:23;;;;;;;7.15;2.20;;;;;;;;;;5040532;28;20018;-66
2022/02/19 07:31:49;;;;;;;12.35;1.80;;;;;;;;;;5041639;28;20354;-65
2022/02/19 07:34:16;;;;;;;9.18;1.85;;;;;;;;;;5021026;28;20030;-66
2022/02/19 07:36:42;;;;;;;10.23;1.70;;;;;;;;;;5039987;28;20100;-65
2022/02/19 07:39:09;;;;;;;8.45;2.10;;;;;;;;;;5041979;28;20132;-66
2022/02/19 07:41:35;;;;;;;8.00;1.92;;;;;;;;;;5022650;28;20024;-64
2022/02/19 07:44:01;;;;;;;10.27;1.90;;;;;;;;;;5044199;28;20021;-66
2022/02/19 07:46:27;;;;;;;9.20;1.63;;;;;;;;;;5043192;28;20022;-64
2022/02/19 07:48:53;;;;;;;6.18;1.88;;;;;;;;;;5052965;28;20155;-65
2022/02/19 07:59:33;;;;;;;7.80;1.90;;;;;;;;;;5054417;28;20491;-66
2022/02/19 08:01:59;;;;;;;11.07;1.80;;;;;;;;;;5051373;28;20088;-66
2022/02/19 08:04:26;;;;;;;7.63;1.85;;;;;;;;;;5040776;28;20033;-67
2022/02/19 08:06:52;;;;;;;24.70;2.28;;;;;;;;;;5045344;28;20100;-66
2022/02/19 08:09:18;;;;;;;21.38;2.30;;;;;;;;;;5041011;28;20028;-67
2022/02/19 08:11:44;;;;;;;9.48;1.95;;;;;;;;;;5035526;28;20044;-68
2022/02/19 08:14:10;;;;;;;14.23;1.63;;;;;;;;;;5035110;28;20022;-67
2022/02/19 08:16:36;;;;;;;28.83;2.30;;;;;;;;;;5035134;28;20026;-68
2022/02/19 08:19:02;;;;;;;12.65;2.33;;;;;;;;;;5061279;28;20032;-67
2022/02/19 08:21:28;;;;;;;12.63;1.90;;;;;;;;;;5075350;28;20062;-69
2022/02/19 08:23:54;;;;;;;6.50;1.52;;;;;;;;;;5075458;28;20046;-68
2022/02/19 08:26:24;;;;;;;8.00;2.13;;;;;;;;;;5069885;28;20111;-68
2022/02/19 08:28:51;;;;;;;8.27;2.10;;;;;;;;;;5043115;28;20055;-67
2022/02/19 08:31:17;;;;;;;7.20;1.75;;;;;;;;;;5039719;28;20026;-68
2022/02/19 08:33:43;;;;;;;10.93;2.00;;;;;;;;;;5033552;28;20026;-69
2022/02/19 08:36:09;;;;;;;37.42;2.58;;;;;;;;;;5052959;28;20023;-67
2022/02/19 08:38:35;;;;;;;43.72;3.30;;;;;;;;;;5074317;28;20135;-68
2022/02/19 08:41:01;;;;;;;32.25;2.42;;;;;;;;;;5037152;28;20026;-68
2022/02/19 08:43:28;;;;;;;19.55;2.42;;;;;;;;;;5048101;28;20445;-67
2022/02/19 08:45:54;;;;;;;24.83;2.90;;;;;;;;;;5055304;28;20025;-69
2022/02/19 08:48:20;;;;;;;14.13;1.77;;;;;;;;;;5055242;28;20027;-70
2022/02/19 08:50:46;;;;;;;16.33;2.40;;;;;;;;;;5054352;28;20487;-69
2022/02/19 08:53:13;;;;;;;11.23;2.17;;;;;;;;;;5054278;28;20029;-65
2022/02/19 08:55:40;;;;;;;10.02;2.17;;;;;;;;;;5073109;28;20025;-67
2022/02/19 08:58:06;;;;;;;14.18;2.33;;;;;;;;;;5074744;28;20035;-67
2022/02/19 09:00:32;;;;;;;15.02;2.00;;;;;;;;;;5055814;28;20036;-67
2022/02/19 09:02:58;;;;;;;9.80;2.05;;;;;;;;;;5074435;28;20078;-69
2022/02/19 09:05:26;;;;;;;8.75;2.13;;;;;;;;;;5074691;28;20024;-68
2022/02/19 09:07:52;;;;;;;10.50;2.22;;;;;;;;;;5074775;28;20065;-70
2022/02/19 09:10:18;;;;;;;8.77;1.98;;;;;;;;;;5074347;28;20020;-67
2022/02/19 09:12:49;;;;;;;7.57;1.50;;;;;;;;;;5074544;28;20032;-69
2022/02/19 09:15:16;;;;;;;9.60;2.00;;;;;;;;;;5074341;28;20039;-67
2022/02/19 09:17:42;;;;;;;9.65;2.55;;;;;;;;;;5073937;28;20063;-66
2022/02/19 09:20:10;;;;;;;8.65;1.85;;;;;;;;;;5074120;28;20742;-67
2022/02/19 09:22:36;;;;;;;8.95;2.10;;;;;;;;;;5073993;28;20032;-68
2022/02/19 09:25:02;;;;;;;6.63;1.83;;;;;;;;;;5062702;28;20052;-69
2022/02/19 09:27:28;;;;;;;11.55;1.80;;;;;;;;;;5054285;28;20108;-68
2022/02/19 09:29:54;;;;;;;10.70;2.05;;;;;;;;;;5054098;28;20025;-71
2022/02/19 09:32:20;;;;;;;8.45;2.17;;;;;;;;;;5053638;28;20021;-65
2022/02/19 09:34:46;;;;;;;10.55;1.55;;;;;;;;;;5054074;28;20039;-68
2022/02/19 09:37:12;;;;;;;9.13;2.20;;;;;;;;;;5053759;28;20025;-67
2022/02/19 09:39:38;;;;;;;10.45;2.35;;;;;;;;;;5053868;28;20086;-68
2022/02/19 09:42:04;;;;;;;11.15;1.90;;;;;;;;;;5053439;28;20032;-69
2022/02/19 09:44:30;;;;;;;9.55;2.22;;;;;;;;;;5053679;28;20448;-68
2022/02/19 09:46:57;;;;;;;8.43;2.00;;;;;;;;;;5053446;28;20021;-67
2022/02/19 09:49:23;;;;;;;7.15;1.80;;;;;;;;;;5053194;28;20119;-66
2022/02/19 09:51:49;;;;;;;6.95;1.70;;;;;;;;;;5053161;28;20099;-68
2022/02/19 09:54:15;;;;;;;5.68;1.77;;;;;;;;;;5052821;28;20200;-67
2022/02/19 09:56:41;;;;;;;8.88;2.05;;;;;;;;;;5071710;28;20438;-69
2022/02/19 09:59:11;;;;;;;9.07;1.70;;;;;;;;;;5073314;28;20039;-66
2022/02/19 10:01:39;;;;;;;8.82;1.73;;;;;;;;;;5073228;28;20028;-69
2022/02/19 10:04:06;;;;;;;11.80;2.13;;;;;;;;;;5073180;28;20020;-69
2022/02/19 10:06:33;;;;;;;10.15;2.03;;;;;;;;;;5072755;28;20383;-67
2022/02/19 10:09:18;;;;;;;9.25;2.50;;;;;;;;;;5072485;28;20056;-67
2022/02/19 10:11:48;;;;;;;9.90;2.33;;;;;;;;;;5054374;28;20534;-68
2022/02/19 10:14:21;;;;;;;6.88;2.15;;;;;;;;;;5073034;28;20025;-68
2022/02/19 10:17:03;;;;;;;12.40;2.03;;;;;;;;;;5072874;28;20040;-67
2022/02/19 10:19:29;;;;;;;11.98;2.40;;;;;;;;;;5073188;28;20375;-66
2022/02/19 10:22:11;;;;;;;9.98;2.13;;;;;;;;;;5073227;28;20095;-68
2022/02/19 10:24:37;;;;;;;9.60;2.30;;;;;;;;;;5071496;28;20086;-67
2022/02/19 10:27:03;;;;;;;8.25;2.05;;;;;;;;;;5071768;28;20024;-68
2022/02/19 10:29:32;;;;;;;9.27;2.47;;;;;;;;;;5055160;28;20535;-67
2022/02/19 10:31:58;;;;;;;8.43;2.00;;;;;;;;;;5072785;28;20041;-67
2022/02/19 10:34:24;;;;;;;10.80;2.33;;;;;;;;;;5072714;28;20029;-67
2022/02/19 10:36:52;;;;;;;10.60;2.38;;;;;;;;;;5054794;28;20028;-68
2022/02/19 10:39:32;;;;;;;14.65;2.65;;;;;;;;;;5072580;28;20087;-69
2022/02/19 10:42:03;;;;;;;9.25;1.88;;;;;;;;;;5069114;28;20031;-67
2022/02/19 10:44:30;;;;;;;10.57;2.20;;;;;;;;;;5068835;28;20078;-67
2022/02/19 10:46:58;;;;;;;11.57;2.70;;;;;;;;;;5072501;28;20132;-67
2022/02/19 10:49:25;;;;;;;7.90;1.80;;;;;;;;;;5053895;28;20028;-67
2022/02/19 10:51:51;;;;;;;5.63;1.73;;;;;;;;;;5072100;28;20102;-67
2022/02/19 10:54:22;;;;;;;8.70;2.10;;;;;;;;;;5072252;28;20063;-68
2022/02/19 10:56:48;;;;;;;9.13;2.40;;;;;;;;;;5072047;28;20024;-67
2022/02/19 10:59:17;;;;;;;12.10;2.15;;;;;;;;;;5067207;28;20033;-70
2022/02/19 11:01:52;;;;;;;10.10;2.08;;;;;;;;;;5072695;28;20070;-69
2022/02/19 11:04:22;;;;;;;10.90;2.35;;;;;;;;;;5072698;28;20017;-70
2022/02/19 11:06:48;;;;;;;11.30;2.22;;;;;;;;;;5072988;28;20021;-67
2022/02/19 11:09:15;;;;;;;12.10;2.65;;;;;;;;;;5072644;28;20028;-67
2022/02/19 11:11:45;;;;;;;13.35;2.40;;;;;;;;;;5054813;28;20028;-67
2022/02/19 11:14:12;;;;;;;11.63;2.13;;;;;;;;;;5073126;28;20047;-69
2022/02/19 11:16:38;;;;;;;7.70;2.08;;;;;;;;;;5055033;28;20024;-66
2022/02/19 11:19:04;;;;;;;13.32;2.33;;;;;;;;;;5054832;28;20029;-67
2022/02/19 11:21:31;;;;;;;10.85;2.28;;;;;;;;;;5054426;28;20028;-69
2022/02/19 11:24:00;;;;;;;14.55;2.60;;;;;;;;;;5074366;28;20379;-66
2022/02/19 11:26:26;;;;;;;8.55;2.33;;;;;;;;;;5042473;28;20036;-68
2022/02/19 11:28:53;;;;;;;8.57;2.30;;;;;;;;;;5038746;28;20060;-69
2022/02/19 11:31:19;;;;;;;10.85;2.10;;;;;;;;;;5056456;28;20043;-66
2022/02/19 11:33:50;;;;;;;11.52;2.63;;;;;;;;;;5056627;28;20349;-67
2022/02/19 11:36:16;;;;;;;10.60;2.50;;;;;;;;;;5063375;28;20028;-67
2022/02/19 11:38:49;;;;;;;8.43;1.85;;;;;;;;;;5075919;28;20036;-66
2022/02/19 11:41:29;;;;;;;7.47;1.90;;;;;;;;;;5076317;28;20036;-69
2022/02/19 11:43:55;;;;;;;9.20;2.20;;;;;;;;;;5059125;28;20182;-66
2022/02/19 11:46:24;;;;;;;11.43;2.05;;;;;;;;;;5056070;28;20112;-66
2022/02/19 11:48:50;;;;;;;6.20;2.05;;;;;;;;;;5056087;28;20032;-67
2022/02/19 11:51:27;;;;;;;8.82;2.22;;;;;;;;;;5038387;28;20072;-66
2022/02/19 11:53:53;;;;;;;12.27;2.17;;;;;;;;;;5055863;28;20025;-66
2022/02/19 11:56:26;;;;;;;10.73;1.90;;;;;;;;;;5056064;28;20078;-65
2022/02/19 11:58:53;;;;;;;9.85;1.80;;;;;;;;;;5054005;28;20369;-65
2022/02/19 12:01:19;;;;;;;7.68;1.55;;;;;;;;;;5069964;28;20463;-65
2022/02/19 12:03:45;;;;;;;9.10;1.67;;;;;;;;;;5076283;28;20103;-64
2022/02/19 12:06:15;;;;;;;9.27;1.60;;;;;;;;;;5075862;28;20024;-65
2022/02/19 12:08:47;;;;;;;8.05;1.63;;;;;;;;;;5057005;28;20020;-65
2022/02/19 12:11:17;;;;;;;9.98;1.80;;;;;;;;;;5075050;28;20037;-65
2022/02/19 12:13:46;;;;;;;8.70;1.95;;;;;;;;;;5075798;28;20798;-65
2022/02/19 12:16:39;;;;;;;7.95;2.50;;;;;;;;;;5061242;28;20587;-64
2022/02/19 12:19:10;;;;;;;9.05;1.77;;;;;;;;;;5069051;28;20391;-66
2022/02/19 12:21:36;;;;;;;8.40;1.85;;;;;;;;;;5075092;28;20045;-65
2022/02/19 12:24:22;;;;;;;8.40;1.92;;;;;;;;;;5075798;28;20150;-65
2022/02/19 12:27:05;;;;;;;8.55;1.98;;;;;;;;;;5056406;28;20025;-68
2022/02/19 12:29:46;;;;;;;5.88;1.63;;;;;;;;;;5055259;28;20036;-68
2022/02/19 12:32:23;;;;;;;7.65;1.65;;;;;;;;;;5055077;28;20021;-70
2022/02/19 12:34:53;;;;;;;6.40;1.98;;;;;;;;;;5054109;28;20037;-65
2022/02/19 12:37:19;;;;;;;7.05;1.73;;;;;;;;;;5055450;28;20036;-68
2022/02/19 12:39:46;;;;;;;6.63;1.73;;;;;;;;;;5054418;28;20801;-70
2022/02/19 12:42:16;;;;;;;6.05;1.48;;;;;;;;;;5066529;28;20090;-65
2022/02/19 12:44:42;;;;;;;7.72;1.40;;;;;;;;;;5054433;28;20052;-65
2022/02/19 12:47:09;;;;;;;11.73;1.83;;;;;;;;;;5053306;28;20096;-65
2022/02/19 12:49:35;;;;;;;10.02;1.90;;;;;;;;;;5075113;28;20042;-67
2022/02/19 12:52:02;;;;;;;7.85;2.00;;;;;;;;;;5074789;28;20376;-67
2022/02/19 12:54:34;;;;;;;7.00;1.75;;;;;;;;;;5075362;28;20035;-70
2022/02/19 12:57:00;;;;;;;10.32;1.70;;;;;;;;;;5075252;28;20491;-66
2022/02/19 12:59:33;;;;;;;5.18;1.55;;;;;;;;;;5074304;28;20048;-65
2022/02/19 13:02:04;;;;;;;9.07;2.00;;;;;;;;;;5071106;28;20055;-65
2022/02/19 13:04:37;;;;;;;9.45;2.03;;;;;;;;;;5062605;28;20081;-65
2022/02/19 13:07:04;;;;;;;10.43;2.28;;;;;;;;;;5055614;28;20024;-65
2022/02/19 13:09:30;;;;;;;9.50;1.95;;;;;;;;;;5074174;28;20037;-66
2022/02/19 13:11:57;;;;;;;9.73;2.05;;;;;;;;;;5073870;28;20614;-64
2022/02/19 13:14:27;;;;;;;6.38;2.03;;;;;;;;;;5073960;28;20452;-65
2022/02/19 13:17:09;;;;;;;10.48;1.90;;;;;;;;;;5072971;28;20384;-66
2022/02/19 13:19:37;;;;;;;14.30;2.15;;;;;;;;;;5072995;28;20419;-66
2022/02/19 13:22:04;;;;;;;11.60;2.15;;;;;;;;;;5054607;28;20025;-67
2022/02/19 13:24:31;;;;;;;10.88;2.63;;;;;;;;;;5074146;28;20027;-68
2022/02/19 13:27:15;;;;;;;11.23;2.33;;;;;;;;;;5053384;28;20036;-67
2022/02/19 13:29:52;;;;;;;7.32;1.90;;;;;;;;;;5053912;28;20349;-67
2022/02/19 13:32:22;;;;;;;14.25;1.92;;;;;;;;;;5053262;28;20537;-66
2022/02/19 13:34:49;;;;;;;12.50;2.33;;;;;;;;;;5035823;28;20040;-67
2022/02/19 13:37:15;;;;;;;7.70;1.83;;;;;;;;;;5053128;28;20025;-66
2022/02/19 13:39:42;;;;;;;9.50;2.17;;;;;;;;;;5053250;28;20033;-66
2022/02/19 13:42:09;;;;;;;11.43;1.70;;;;;;;;;;5050065;28;20033;-66
2022/02/19 13:44:48;;;;;;;9.02;1.88;;;;;;;;;;5033716;28;20375;-66
2022/02/19 13:47:15;;;;;;;11.68;1.85;;;;;;;;;;5033242;28;20103;-66
2022/02/19 13:49:47;;;;;;;13.82;2.15;;;;;;;;;;5033279;28;20028;-66
2022/02/19 13:52:30;;;;;;;10.40;1.75;;;;;;;;;;5033350;28;20114;-66
2022/02/19 13:55:07;;;;;;;8.13;2.17;;;;;;;;;;5052811;28;20114;-66
2022/02/19 13:57:33;;;;;;;8.73;1.90;;;;;;;;;;5073229;28;20020;-64
2022/02/19 14:00:00;;;;;;;10.07;2.20;;;;;;;;;;5073176;28;20329;-66
2022/02/19 14:02:26;;;;;;;9.02;1.77;;;;;;;;;;5054854;28;20021;-67
2022/02/19 14:05:05;;;;;;;8.23;2.00;;;;;;;;;;5073111;28;20052;-66
2022/02/19 14:07:31;;;;;;;7.50;1.88;;;;;;;;;;5055708;28;20037;-67
2022/02/19 14:10:10;;;;;;;11.73;2.08;;;;;;;;;;5073224;28;20107;-69
2022/02/19 14:12:37;;;;;;;11.32;2.35;;;;;;;;;;5061100;28;20093;-68
2022/02/19 14:15:05;;;;;;;7.13;1.98;;;;;;;;;;5073427;28;20119;-68
2022/02/19 14:17:40;;;;;;;13.23;2.40;;;;;;;;;;5072695;28;20021;-68
2022/02/19 14:20:09;;;;;;;9.52;2.47;;;;;;;;;;5072458;28;20029;-69
2022/02/19 14:22:41;;;;;;;8.80;2.22;;;;;;;;;;5072195;28;20032;-68
2022/02/19 14:25:18;;;;;;;11.23;1.95;;;;;;;;;;5062120;28;20078;-67
2022/02/19 14:27:50;;;;;;;12.40;2.50;;;;;;;;;;5059050;28;20029;-67
2022/02/19 14:30:16;;;;;;;10.75;1.90;;;;;;;;;;5070696;28;20108;-67
2022/02/19 14:32:43;;;;;;;11.80;2.47;;;;;;;;;;5052566;28;20021;-68
2022/02/19 14:35:09;;;;;;;10.68;2.35;;;;;;;;;;5044755;28;20530;-65
2022/02/19 14:37:35;;;;;;;10.32;2.25;;;;;;;;;;5051978;28;20376;-65
2022/02/19 14:40:01;;;;;;;15.95;2.67;;;;;;;;;;5052233;28;20515;-67
2022/02/19 14:42:27;;;;;;;16.15;2.30;;;;;;;;;;5052039;28;20071;-64
2022/02/19 14:44:53;;;;;;;12.38;2.10;;;;;;;;;;5052034;28;20100;-66
2022/02/19 14:47:19;;;;;;;9.63;2.20;;;;;;;;;;5052305;28;20064;-64